Terminal Aerodrome Forecast
Issued by NWS

Home | Current Version | Previous Version | Text Only | Print | Product List | Glossary On
Versions: 1 2 3 4 5 6 7 8 9 10 11 12 13 14 15
000
FTUS44 KLZK 291700
TAFHOT
TAF
KHOT 291730Z 2918/3018 17006KT P6SM SCT020
      TEMPO 2918/2919 BKN010
     FM292100 22005KT P6SM SCT250
     FM300200 34006KT P6SM SCT040
     FM301200 03006KT P6SM SKC
     FM301700 09006KT P6SM SKC=

USA.gov is the U.S. government's official web portal to all federal, state and local government web resources and services.